createdAt,value
2022-10-23T00:01:32.896Z,10.50
2022-10-23T00:04:03.944Z,10.40
2022-10-23T00:06:33.468Z,10.40
2022-10-23T00:09:00.484Z,10.30
2022-10-23T00:11:29.561Z,10.30
2022-10-23T00:14:01.237Z,10.30
2022-10-23T00:16:28.783Z,10.20
2022-10-23T00:18:55.689Z,10.20
2022-10-23T00:21:23.792Z,10.20
2022-10-23T00:23:50.586Z,10.20
2022-10-23T00:26:17.445Z,10.20
2022-10-23T00:28:47.490Z,10.20
2022-10-23T00:31:14.260Z,10.20
2022-10-23T00:33:42.116Z,10.10
2022-10-23T00:36:12.262Z,10.10
2022-10-23T00:38:39.362Z,10.10
2022-10-23T00:41:09.762Z,10.00
2022-10-23T00:44:04.792Z,10.00
2022-10-23T00:46:33.353Z,10.00
2022-10-23T00:49:00.969Z,10.00
2022-10-23T00:51:34.244Z,10.00
2022-10-23T00:54:22.795Z,10.00
2022-10-23T00:56:49.029Z,10.00
2022-10-23T00:59:15.849Z,10.00
2022-10-23T01:01:42.747Z,9.90
2022-10-23T01:04:10.257Z,9.90
2022-10-23T01:06:45.227Z,9.80
2022-10-23T01:09:36.658Z,9.80
2022-10-23T01:12:30.060Z,9.80
2022-10-23T01:15:27.052Z,9.80
2022-10-23T01:18:18.632Z,9.70
2022-10-23T01:20:53.482Z,9.80
2022-10-23T01:23:55.150Z,9.80
2022-10-23T01:26:40.673Z,9.80
2022-10-23T01:29:21.077Z,9.80
2022-10-23T01:32:17.637Z,9.80
2022-10-23T01:35:04.729Z,9.70
2022-10-23T01:37:41.377Z,9.70
2022-10-23T01:40:22.461Z,9.70
2022-10-23T01:42:56.639Z,9.70
2022-10-23T01:45:42.542Z,9.70
2022-10-23T01:48:15.670Z,9.70
2022-10-23T01:50:44.079Z,9.70
2022-10-23T01:53:10.842Z,9.70
2022-10-23T01:55:39.037Z,9.70
2022-10-23T01:58:08.354Z,9.70
2022-10-23T02:00:39.434Z,9.70
2022-10-23T02:03:07.900Z,9.60
2022-10-23T02:05:34.905Z,9.60
2022-10-23T02:08:02.398Z,9.60
2022-10-23T02:10:49.409Z,9.60
2022-10-23T02:13:59.780Z,9.60
2022-10-23T02:16:41.386Z,9.60
2022-10-23T02:19:39.170Z,9.60
2022-10-23T02:22:24.414Z,9.50
2022-10-23T02:24:58.457Z,9.60
2022-10-23T02:27:52.389Z,9.60
2022-10-23T02:30:20.143Z,9.60
2022-10-23T02:32:51.456Z,9.60
2022-10-23T02:35:21.453Z,9.60
2022-10-23T02:37:59.875Z,9.50
2022-10-23T02:40:41.121Z,9.60
2022-10-23T02:43:22.370Z,9.50
2022-10-23T02:46:29.811Z,9.60
2022-10-23T02:49:18.648Z,9.60
2022-10-23T02:52:01.542Z,9.50
2022-10-23T02:54:45.204Z,9.50
2022-10-23T02:57:26.926Z,9.50
2022-10-23T03:00:07.906Z,9.50
2022-10-23T03:02:46.954Z,9.50
2022-10-23T03:05:20.645Z,9.50
2022-10-23T03:07:47.881Z,9.40
2022-10-23T03:10:14.889Z,9.40
2022-10-23T03:12:42.244Z,9.40
2022-10-23T03:15:12.028Z,9.40
2022-10-23T03:17:39.095Z,9.40
2022-10-23T03:20:07.809Z,9.40
2022-10-23T03:22:34.654Z,9.40
2022-10-23T03:25:01.437Z,9.40
2022-10-23T03:29:55.529Z,9.40
2022-10-23T03:32:22.113Z,9.40
2022-10-23T03:34:48.738Z,9.40
2022-10-23T03:37:15.330Z,9.40
2022-10-23T03:39:42.158Z,9.40
2022-10-23T03:42:08.825Z,9.40
2022-10-23T03:44:35.412Z,9.40
2022-10-23T03:47:02.086Z,9.40
2022-10-23T03:49:28.942Z,9.50
2022-10-23T03:51:58.089Z,9.50
2022-10-23T03:54:27.359Z,9.50
2022-10-23T03:56:57.371Z,9.60
2022-10-23T03:59:24.505Z,9.60
2022-10-23T04:01:51.480Z,9.60
2022-10-23T04:04:18.416Z,9.50
2022-10-23T04:06:45.362Z,9.50
2022-10-23T04:11:39.674Z,9.60
2022-10-23T04:14:06.254Z,9.50
2022-10-23T04:16:32.838Z,9.60
2022-10-23T04:18:59.512Z,9.60
2022-10-23T04:21:26.154Z,9.60
2022-10-23T04:23:52.787Z,9.60
2022-10-23T04:26:19.378Z,9.50
2022-10-23T04:28:45.999Z,9.60
2022-10-23T04:31:12.719Z,9.60
2022-10-23T04:33:39.290Z,9.60
2022-10-23T04:36:06.486Z,9.60
2022-10-23T04:38:33.139Z,9.60
2022-10-23T04:40:59.730Z,9.60
2022-10-23T04:43:26.331Z,9.60
2022-10-23T04:45:52.948Z,9.50
2022-10-23T04:48:25.496Z,9.60
2022-10-23T04:51:01.101Z,9.60
2022-10-23T04:53:29.074Z,9.50
2022-10-23T04:55:58.526Z,9.50
2022-10-23T04:58:27.072Z,9.50
2022-10-23T05:00:53.842Z,9.50
2022-10-23T05:03:22.519Z,9.50
2022-10-23T05:05:49.102Z,9.60
2022-10-23T05:08:18.014Z,9.50
2022-10-23T05:10:44.983Z,9.60
2022-10-23T05:13:11.576Z,9.60
2022-10-23T05:18:26.107Z,9.50
2022-10-23T05:21:00.756Z,9.50
2022-10-23T05:23:30.507Z,9.50
2022-10-23T05:25:57.079Z,9.50
2022-10-23T05:28:24.318Z,9.50
2022-10-23T05:30:51.245Z,9.50
2022-10-23T05:33:19.023Z,9.50
2022-10-23T05:35:45.847Z,9.40
2022-10-23T05:38:14.526Z,9.50
2022-10-23T05:40:41.139Z,9.50
2022-10-23T05:43:07.779Z,9.50
2022-10-23T05:45:34.459Z,9.40
2022-10-23T05:48:11.005Z,9.40
2022-10-23T05:50:47.715Z,9.40
2022-10-23T05:53:14.760Z,9.40
2022-10-23T05:55:41.336Z,9.30
2022-10-23T05:58:07.923Z,9.30
2022-10-23T06:00:34.523Z,9.30
2022-10-23T06:03:03.139Z,9.20
2022-10-23T06:05:31.142Z,9.20
2022-10-23T06:07:59.634Z,9.20
2022-10-23T06:10:27.507Z,9.20
2022-10-23T06:12:54.180Z,9.20
2022-10-23T06:15:20.772Z,9.20
2022-10-23T06:17:47.351Z,9.30
2022-10-23T06:20:14.020Z,9.20
2022-10-23T06:22:40.891Z,9.30
2022-10-23T06:25:08.720Z,9.30
2022-10-23T06:27:35.284Z,9.30
2022-10-23T06:30:01.896Z,9.40
2022-10-23T06:32:32.231Z,9.40
2022-10-23T06:34:58.805Z,9.40
2022-10-23T06:37:25.388Z,9.50
2022-10-23T06:39:51.996Z,9.50
2022-10-23T06:42:18.659Z,9.50
2022-10-23T06:44:45.213Z,9.60
2022-10-23T06:47:13.962Z,9.70
2022-10-23T06:49:40.597Z,9.80
2022-10-23T06:52:14.236Z,9.80
2022-10-23T06:54:49.866Z,9.90
2022-10-23T06:57:16.451Z,9.90
2022-10-23T06:59:43.023Z,9.90
2022-10-23T07:02:10.316Z,10.00
2022-10-23T07:04:36.936Z,10.20
2022-10-23T07:07:03.537Z,10.30
2022-10-23T07:09:30.308Z,10.40
2022-10-23T07:11:56.956Z,10.40
2022-10-23T07:14:23.587Z,10.50
2022-10-23T07:16:50.145Z,10.60
2022-10-23T07:19:16.712Z,10.80
2022-10-23T07:21:43.336Z,10.90
2022-10-23T07:24:10.240Z,11.10
2022-10-23T07:26:36.840Z,11.20
2022-10-23T07:29:03.476Z,11.30
2022-10-23T07:31:30.281Z,11.40
2022-10-23T07:33:56.912Z,11.50
2022-10-23T07:36:23.584Z,11.60
2022-10-23T07:38:51.300Z,11.80
2022-10-23T07:41:18.048Z,11.90
2022-10-23T07:43:44.748Z,12.10
2022-10-23T07:46:11.567Z,12.20
2022-10-23T07:48:39.222Z,12.30
2022-10-23T07:51:12.340Z,12.30
2022-10-23T07:53:39.433Z,12.50
2022-10-23T07:56:24.056Z,12.80
2022-10-23T07:58:53.638Z,13.10
2022-10-23T08:01:28.257Z,13.20
2022-10-23T08:03:54.972Z,13.30
2022-10-23T08:06:21.595Z,13.30
2022-10-23T08:08:48.179Z,13.40
2022-10-23T08:11:18.039Z,13.60
2022-10-23T08:13:44.605Z,13.70
2022-10-23T08:16:11.218Z,13.90
2022-10-23T08:18:37.813Z,14.00
2022-10-23T08:21:04.961Z,14.10
2022-10-23T08:23:31.814Z,14.10
2022-10-23T08:26:02.982Z,14.20
2022-10-23T08:28:29.597Z,14.40
2022-10-23T08:30:56.282Z,14.40
2022-10-23T08:33:23.972Z,14.50
2022-10-23T08:35:51.052Z,14.80
2022-10-23T08:38:18.048Z,15.40
2022-10-23T08:40:47.005Z,16.20
2022-10-23T08:43:18.720Z,17.20
2022-10-23T08:45:55.463Z,18.10
2022-10-23T08:48:50.727Z,18.50
2022-10-23T08:51:25.515Z,18.50
2022-10-23T08:53:56.801Z,18.60
2022-10-23T08:56:39.425Z,18.30
2022-10-23T08:59:28.420Z,17.60
2022-10-23T09:02:02.979Z,17.30
2022-10-23T09:04:30.536Z,17.00
2022-10-23T09:07:54.201Z,16.70
2022-10-23T09:10:59.465Z,16.30
2022-10-23T09:13:47.513Z,15.80
2022-10-23T09:16:46.170Z,15.60
2022-10-23T09:19:18.888Z,15.40
2022-10-23T09:21:50.013Z,15.50
2022-10-23T09:24:20.077Z,15.40
2022-10-23T09:26:49.921Z,15.60
2022-10-23T09:29:30.446Z,15.40
2022-10-23T09:32:04.317Z,15.30
2022-10-23T09:34:33.509Z,15.40
2022-10-23T09:37:23.036Z,15.40
2022-10-23T09:39:49.708Z,15.40
2022-10-23T09:42:26.262Z,15.60
2022-10-23T09:44:54.962Z,15.40
2022-10-23T09:47:25.851Z,15.30
2022-10-23T09:49:57.205Z,15.20
2022-10-23T09:52:37.463Z,15.20
2022-10-23T09:55:21.483Z,15.10
2022-10-23T09:57:48.206Z,15.10
2022-10-23T10:00:19.162Z,15.20
2022-10-23T10:03:06.907Z,15.20
2022-10-23T10:05:37.167Z,15.10
2022-10-23T10:08:05.944Z,15.00
2022-10-23T10:10:46.203Z,14.90
2022-10-23T10:13:37.082Z,15.00
2022-10-23T10:16:20.285Z,15.00
2022-10-23T10:18:57.475Z,15.00
2022-10-23T10:21:58.160Z,15.00
2022-10-23T10:24:46.011Z,15.00
2022-10-23T10:27:54.099Z,15.00
2022-10-23T10:30:23.231Z,15.10
2022-10-23T10:33:10.183Z,15.30
2022-10-23T10:36:00.401Z,15.40
2022-10-23T10:38:47.157Z,15.60
2022-10-23T10:41:33.111Z,15.70
2022-10-23T10:44:18.292Z,15.80
2022-10-23T10:47:10.196Z,15.80
2022-10-23T10:50:15.307Z,15.80
2022-10-23T10:53:00.059Z,15.90
2022-10-23T10:55:38.349Z,15.90
2022-10-23T10:58:43.974Z,15.80
2022-10-23T11:01:42.724Z,15.90
2022-10-23T11:04:37.923Z,15.90
2022-10-23T11:07:11.926Z,16.10
2022-10-23T11:09:39.384Z,16.20
2022-10-23T11:12:06.141Z,16.00
2022-10-23T11:14:34.358Z,16.10
2022-10-23T11:17:47.554Z,16.10
2022-10-23T11:20:41.378Z,16.10
2022-10-23T11:23:43.253Z,16.20
2022-10-23T11:26:32.559Z,16.00
2022-10-23T11:29:28.815Z,15.90
2022-10-23T11:32:34.897Z,15.80
2022-10-23T11:35:30.669Z,15.70
2022-10-23T11:38:19.064Z,15.60
2022-10-23T11:43:46.715Z,15.80
2022-10-23T11:46:31.952Z,15.70
2022-10-23T11:49:02.171Z,15.70
2022-10-23T11:51:42.172Z,15.70
2022-10-23T11:54:11.837Z,15.80
2022-10-23T11:56:53.374Z,15.90
2022-10-23T11:59:29.237Z,16.00
2022-10-23T12:01:58.411Z,16.10
2022-10-23T12:04:52.578Z,16.20
2022-10-23T12:07:30.033Z,16.20
2022-10-23T12:10:05.611Z,16.20
2022-10-23T12:12:40.954Z,16.20
2022-10-23T12:15:16.442Z,16.30
2022-10-23T12:17:44.357Z,16.50
2022-10-23T12:20:11.319Z,16.50
2022-10-23T12:23:05.458Z,16.50
2022-10-23T12:26:02.664Z,16.60
2022-10-23T12:28:50.216Z,16.60
2022-10-23T12:31:47.844Z,16.60
2022-10-23T12:34:42.185Z,16.60
2022-10-23T12:37:43.924Z,16.50
2022-10-23T12:40:12.072Z,16.60
2022-10-23T12:42:38.939Z,16.60
2022-10-23T12:45:28.865Z,16.60
2022-10-23T12:47:55.850Z,16.60
2022-10-23T12:50:29.349Z,16.70
2022-10-23T12:53:06.573Z,16.90
2022-10-23T12:58:31.935Z,17.00
2022-10-23T13:01:03.428Z,16.90
2022-10-23T13:03:32.017Z,16.90
2022-10-23T13:06:02.560Z,16.80
2022-10-23T13:08:42.433Z,16.70
2022-10-23T13:11:16.082Z,16.70
2022-10-23T13:13:42.806Z,16.60
2022-10-23T13:16:21.629Z,16.60
2022-10-23T13:18:49.233Z,16.60
2022-10-23T13:21:28.358Z,16.60
2022-10-23T13:23:56.007Z,16.50
2022-10-23T13:26:47.756Z,16.60
2022-10-23T13:29:34.521Z,16.50
2022-10-23T13:32:24.166Z,16.50
2022-10-23T13:35:04.090Z,16.50
2022-10-23T13:37:37.341Z,16.40
2022-10-23T13:40:23.851Z,16.50
2022-10-23T13:42:53.081Z,16.50
2022-10-23T13:45:26.193Z,16.50
2022-10-23T13:47:53.310Z,16.40
2022-10-23T13:50:20.511Z,16.40
2022-10-23T13:52:47.101Z,16.40
2022-10-23T13:55:25.365Z,16.50
2022-10-23T13:57:51.986Z,16.40
2022-10-23T14:00:19.172Z,16.40
2022-10-23T14:02:46.063Z,16.40
2022-10-23T14:05:13.038Z,16.40
2022-10-23T14:07:39.935Z,16.40
2022-10-23T14:10:07.142Z,16.40
2022-10-23T14:12:40.777Z,16.40
2022-10-23T14:15:08.869Z,16.30
2022-10-23T14:17:35.989Z,16.30
2022-10-23T14:20:06.046Z,16.40
2022-10-23T14:22:33.227Z,16.40
2022-10-23T14:25:00.324Z,16.40
2022-10-23T14:27:26.971Z,16.40
2022-10-23T14:29:53.563Z,16.40
2022-10-23T14:32:20.164Z,16.40
2022-10-23T14:34:51.596Z,16.30
2022-10-23T14:37:19.406Z,16.30
2022-10-23T14:39:49.978Z,16.30
2022-10-23T14:42:17.059Z,16.30
2022-10-23T14:44:43.895Z,16.30
2022-10-23T14:47:10.530Z,16.30
2022-10-23T14:49:39.905Z,16.30
2022-10-23T14:52:09.532Z,16.30
2022-10-23T14:54:36.319Z,16.30
2022-10-23T14:57:03.642Z,16.20
2022-10-23T14:59:30.381Z,16.20
2022-10-23T15:01:56.960Z,16.10
2022-10-23T15:04:23.762Z,16.00
2022-10-23T15:06:50.405Z,16.00
2022-10-23T15:09:19.630Z,15.90
2022-10-23T15:11:47.200Z,15.90
2022-10-23T15:14:13.833Z,15.90
2022-10-23T15:16:43.530Z,15.80
2022-10-23T15:19:15.465Z,15.80
2022-10-23T15:21:45.571Z,15.80
2022-10-23T15:24:12.162Z,15.70
2022-10-23T15:26:39.476Z,15.70
2022-10-23T15:29:06.521Z,15.60
2022-10-23T15:31:38.594Z,15.50
2022-10-23T15:34:06.251Z,15.50
2022-10-23T15:36:33.131Z,15.40
2022-10-23T15:39:00.277Z,15.40
2022-10-23T15:41:32.654Z,15.40
2022-10-23T15:44:01.543Z,15.30
2022-10-23T15:46:28.574Z,15.30
2022-10-23T15:48:55.318Z,15.30
2022-10-23T15:51:22.457Z,15.20
2022-10-23T15:53:49.197Z,15.20
2022-10-23T15:56:15.825Z,15.10
2022-10-23T15:58:42.476Z,15.10
2022-10-23T16:01:09.532Z,15.00
2022-10-23T16:03:38.401Z,15.00
2022-10-23T16:06:09.016Z,15.00
2022-10-23T16:08:36.065Z,15.00
2022-10-23T16:11:03.949Z,15.00
2022-10-23T16:13:30.689Z,14.90
2022-10-23T16:15:57.256Z,14.90
2022-10-23T16:18:23.831Z,14.90
2022-10-23T16:20:50.870Z,14.90
2022-10-23T16:23:17.611Z,14.80
2022-10-23T16:25:45.510Z,14.80
2022-10-23T16:28:12.376Z,14.70
2022-10-23T16:30:43.431Z,14.70
2022-10-23T16:33:10.083Z,14.70
2022-10-23T16:35:37.185Z,14.70
2022-10-23T16:38:04.454Z,14.60
2022-10-23T16:40:31.255Z,14.60
2022-10-23T16:42:58.588Z,14.60
2022-10-23T16:45:25.326Z,14.60
2022-10-23T16:47:51.966Z,14.60
2022-10-23T16:50:18.702Z,14.60
2022-10-23T16:52:45.736Z,14.70
2022-10-23T16:55:12.953Z,14.70
2022-10-23T16:57:39.615Z,14.70
2022-10-23T17:00:07.341Z,14.70
2022-10-23T17:02:34.311Z,14.60
2022-10-23T17:05:01.017Z,14.60
2022-10-23T17:07:27.616Z,14.60
2022-10-23T17:09:54.270Z,14.60
2022-10-23T17:12:20.853Z,14.60
2022-10-23T17:14:47.425Z,14.50
2022-10-23T17:17:14.113Z,14.50
2022-10-23T17:19:45.525Z,14.50
2022-10-23T17:22:13.470Z,14.50
2022-10-23T17:24:42.389Z,14.50
2022-10-23T17:27:09.456Z,14.50
2022-10-23T17:29:36.304Z,14.50
2022-10-23T17:32:03.627Z,14.40
2022-10-23T17:34:30.292Z,14.40
2022-10-23T17:36:57.028Z,14.40
2022-10-23T17:39:28.171Z,14.40
2022-10-23T17:41:55.931Z,14.30
2022-10-23T17:44:22.808Z,14.30
2022-10-23T17:46:54.260Z,14.30
2022-10-23T17:49:22.580Z,14.40
2022-10-23T17:51:57.229Z,14.40
2022-10-23T17:54:26.330Z,14.30
2022-10-23T17:56:52.960Z,14.30
2022-10-23T17:59:19.854Z,14.30
2022-10-23T18:01:48.115Z,14.40
2022-10-23T18:04:17.638Z,14.40
2022-10-23T18:06:49.053Z,14.40
2022-10-23T18:09:16.432Z,14.40
2022-10-23T18:11:48.105Z,14.40
2022-10-23T18:14:18.161Z,14.50
2022-10-23T18:16:45.602Z,14.50
2022-10-23T18:19:13.384Z,14.60
2022-10-23T18:21:40.060Z,14.80
2022-10-23T18:24:06.811Z,14.90
2022-10-23T18:26:38.958Z,15.20
2022-10-23T18:29:09.696Z,15.40
2022-10-23T18:31:37.665Z,15.50
2022-10-23T18:34:11.609Z,15.50
2022-10-23T18:36:40.680Z,15.50
2022-10-23T18:39:12.305Z,15.50
2022-10-23T18:41:42.773Z,15.40
2022-10-23T18:44:15.106Z,15.40
2022-10-23T18:46:42.121Z,15.30
2022-10-23T18:49:09.641Z,15.30
2022-10-23T18:51:37.649Z,15.20
2022-10-23T18:54:12.885Z,15.20
2022-10-23T18:56:40.069Z,15.10
2022-10-23T18:59:11.665Z,15.00
2022-10-23T19:01:38.348Z,14.90
2022-10-23T19:04:05.867Z,14.90
2022-10-23T19:06:35.376Z,14.80
2022-10-23T19:09:03.817Z,14.80
2022-10-23T19:11:30.388Z,14.80
2022-10-23T19:13:56.980Z,14.70
2022-10-23T19:16:40.429Z,14.70
2022-10-23T19:19:20.107Z,14.60
2022-10-23T19:21:47.667Z,14.60
2022-10-23T19:24:22.043Z,14.60
2022-10-23T19:26:49.520Z,14.50
2022-10-23T19:29:22.568Z,14.40
2022-10-23T19:31:49.672Z,14.40
2022-10-23T19:34:19.972Z,14.40
2022-10-23T19:36:52.429Z,14.40
2022-10-23T19:39:19.612Z,14.30
2022-10-23T19:41:47.143Z,14.40
2022-10-23T19:44:15.107Z,14.30
2022-10-23T19:46:41.721Z,14.30
2022-10-23T19:49:09.680Z,14.30
2022-10-23T19:51:36.576Z,14.20
2022-10-23T19:54:04.184Z,14.20
2022-10-23T19:56:30.812Z,14.20
2022-10-23T19:58:57.368Z,14.20
2022-10-23T20:01:25.250Z,14.20
2022-10-23T20:03:52.387Z,14.20
2022-10-23T20:06:23.387Z,14.20
2022-10-23T20:08:50.491Z,14.20
2022-10-23T20:11:22.376Z,14.20
2022-10-23T20:13:50.029Z,14.10
2022-10-23T20:16:23.356Z,14.10
2022-10-23T20:18:50.390Z,14.10
2022-10-23T20:21:17.955Z,14.10
2022-10-23T20:23:44.973Z,14.00
2022-10-23T20:26:16.478Z,14.00
2022-10-23T20:28:48.421Z,14.00
2022-10-23T20:31:15.992Z,14.00
2022-10-23T20:33:43.549Z,14.00
2022-10-23T20:36:32.322Z,14.00
2022-10-23T20:39:03.101Z,14.10
2022-10-23T20:41:32.929Z,14.30
2022-10-23T20:44:00.358Z,14.30
2022-10-23T20:46:27.337Z,14.40
2022-10-23T20:48:54.271Z,14.50
2022-10-23T20:51:23.481Z,14.50
2022-10-23T20:53:52.935Z,14.50
2022-10-23T20:56:30.923Z,14.60
2022-10-23T20:58:59.885Z,14.60
2022-10-23T21:01:27.735Z,14.50
2022-10-23T21:03:56.938Z,14.60
2022-10-23T21:06:26.426Z,14.60
2022-10-23T21:09:06.458Z,14.70
2022-10-23T21:11:35.331Z,14.80
2022-10-23T21:14:03.631Z,14.80
2022-10-23T21:16:37.113Z,14.80
2022-10-23T21:19:04.434Z,14.90
2022-10-23T21:21:33.057Z,14.90
2022-10-23T21:24:04.683Z,14.90
2022-10-23T21:26:32.094Z,14.90
2022-10-23T21:29:13.718Z,14.90
2022-10-23T21:31:44.897Z,14.80
2022-10-23T21:37:10.848Z,14.80
2022-10-23T21:39:33.257Z,14.80
2022-10-23T21:42:00.100Z,14.70
2022-10-23T21:44:26.795Z,14.70
2022-10-23T21:46:53.546Z,14.60
2022-10-23T21:49:20.256Z,14.60
2022-10-23T21:51:47.304Z,14.50
2022-10-23T21:54:17.633Z,14.50
2022-10-23T21:56:46.722Z,14.50
2022-10-23T21:59:16.788Z,14.50
2022-10-23T22:01:46.131Z,14.40
2022-10-23T22:04:15.019Z,14.30
2022-10-23T22:06:42.470Z,14.30
2022-10-23T22:09:12.239Z,14.30
2022-10-23T22:11:38.997Z,14.20
2022-10-23T22:14:05.625Z,14.20
2022-10-23T22:16:32.233Z,14.10
2022-10-23T22:18:58.957Z,14.10
2022-10-23T22:21:29.029Z,14.00
2022-10-23T22:23:58.436Z,13.90
2022-10-23T22:26:32.338Z,13.90
2022-10-23T22:29:03.241Z,13.80
2022-10-23T22:31:33.057Z,13.70
2022-10-23T22:34:12.958Z,13.60
2022-10-23T22:36:47.673Z,13.60
2022-10-23T22:39:14.722Z,13.60
2022-10-23T22:41:43.468Z,13.50
2022-10-23T22:44:11.971Z,13.50
2022-10-23T22:46:38.629Z,13.40
2022-10-23T22:51:37.721Z,13.30
2022-10-23T22:54:04.527Z,13.30
2022-10-23T22:56:32.163Z,13.30
2022-10-23T22:58:58.753Z,13.20
2022-10-23T23:01:36.310Z,13.20
2022-10-23T23:04:13.856Z,13.10
2022-10-23T23:06:49.696Z,13.10
2022-10-23T23:09:18.084Z,13.10
2022-10-23T23:11:51.562Z,13.10
2022-10-23T23:14:23.187Z,13.10
2022-10-23T23:16:52.473Z,13.20
2022-10-23T23:19:19.199Z,13.20
2022-10-23T23:21:45.857Z,13.30
2022-10-23T23:24:12.646Z,13.30
2022-10-23T23:26:39.478Z,13.40
2022-10-23T23:29:06.243Z,13.50
2022-10-23T23:31:32.983Z,13.50
2022-10-23T23:33:59.605Z,13.60
2022-10-23T23:36:28.526Z,13.70
2022-10-23T23:38:57.636Z,13.70
2022-10-23T23:41:26.277Z,13.70
2022-10-23T23:43:58.049Z,13.80
2022-10-23T23:46:25.532Z,13.70
2022-10-23T23:48:52.156Z,13.80
2022-10-23T23:51:22.617Z,13.80
2022-10-23T23:53:51.017Z,13.70
2022-10-23T23:56:18.442Z,13.70
2022-10-23T23:58:45.098Z,13.70
